Time;durP1;ratioP1;P1;durP2;ratioP2;P2;SDS_P1;SDS_P2;PMS_P1;PMS_P2;Temp;Humidity;BMP_temperature;BMP_pressure;BME280_temperature;BME280_humidity;BME280_pressure;Samples;Min_cycle;Max_cycle;Signal;HPM_P1;HPM_P2
2022/12/30 00:01:50;;;;;;;25.08;5.90;;;6.50;99.90;;;;;;4947882;28;20499;-70
2022/12/30 00:04:16;;;;;;;22.60;5.53;;;6.40;99.90;;;;;;4949696;28;20549;-70
2022/12/30 00:06:41;;;;;;;23.77;6.13;;;6.40;99.90;;;;;;4963663;28;20919;-71
2022/12/30 00:09:08;;;;;;;22.33;4.85;;;6.30;99.90;;;;;;4944501;28;20441;-69
2022/12/30 00:11:34;;;;;;;22.67;4.60;;;6.40;99.90;;;;;;4944082;28;20460;-71
2022/12/30 00:34:04;;;;;;;25.00;5.37;;;6.20;99.90;;;;;;4946305;28;20579;-71
2022/12/30 00:36:30;;;;;;;28.10;6.78;;;6.20;99.90;;;;;;4934245;29;20436;-69
2022/12/30 00:38:56;;;;;;;24.92;5.32;;;6.20;99.90;;;;;;4943421;29;20785;-70
2022/12/30 00:44:06;;;;;;;26.70;6.03;;;6.10;99.90;;;;;;4943006;29;20441;-70
2022/12/30 00:46:33;;;;;;;20.52;4.57;;;6.20;99.90;;;;;;4942009;29;20433;-70
2022/12/30 00:57:13;;;;;;;29.30;6.15;;;6.10;99.90;;;;;;4941056;29;20454;-70
2022/12/30 00:59:39;;;;;;;26.40;6.10;;;6.20;99.90;;;;;;4943962;29;20502;-69
2022/12/30 01:02:05;;;;;;;20.67;4.65;;;6.10;99.90;;;;;;4933332;28;20434;-70
2022/12/30 01:04:30;;;;;;;26.00;6.82;;;6.20;99.90;;;;;;4944630;29;20516;-70
2022/12/30 01:06:56;;;;;;;21.45;4.90;;;6.00;99.90;;;;;;4929703;29;20534;-71
2022/12/30 01:09:22;;;;;;;23.00;5.10;;;6.10;99.90;;;;;;4945973;29;20437;-70
2022/12/30 01:12:07;;;;;;;21.52;5.53;;;5.90;99.90;;;;;;4944541;29;20434;-71
2022/12/30 01:14:34;;;;;;;17.27;3.77;;;6.10;99.90;;;;;;4942237;29;20430;-70
2022/12/30 01:17:00;;;;;;;19.90;4.50;;;6.00;99.90;;;;;;4944931;29;20430;-69
2022/12/30 01:19:25;;;;;;;29.58;6.35;;;6.00;99.90;;;;;;4942845;28;20444;-70
2022/12/30 01:21:51;;;;;;;21.67;4.60;;;6.00;99.90;;;;;;4943534;29;20972;-71
2022/12/30 01:24:17;;;;;;;25.98;7.57;;;6.00;99.90;;;;;;4944257;28;20512;-70
2022/12/30 01:26:42;;;;;;;19.73;4.88;;;5.80;99.90;;;;;;4944121;29;20457;-71
2022/12/30 01:29:08;;;;;;;23.42;5.90;;;5.70;99.90;;;;;;4941820;28;20501;-70
2022/12/30 01:31:34;;;;;;;26.25;4.85;;;5.90;99.90;;;;;;4944873;29;20434;-70
2022/12/30 01:34:00;;;;;;;19.00;4.15;;;5.60;99.90;;;;;;4936473;28;20771;-70
2022/12/30 01:36:29;;;;;;;26.73;5.95;;;6.00;99.90;;;;;;4943501;28;20434;-70
2022/12/30 01:39:00;;;;;;;28.23;5.85;;;5.80;99.90;;;;;;4941316;29;20938;-70
2022/12/30 01:44:48;;;;;;;24.83;4.47;;;5.90;99.90;;;;;;4611411;23;20499;-77
2022/12/30 01:47:31;;;;;;;22.70;4.90;;;5.80;99.90;;;;;;4980242;28;20438;-78
2022/12/30 01:50:05;;;;;;;23.77;5.35;;;5.90;99.90;;;;;;4985581;28;20741;-78
2022/12/30 01:52:33;;;;;;;22.98;4.50;;;6.00;99.90;;;;;;4975357;28;20509;-76
2022/12/30 01:55:04;;;;;;;18.08;4.35;;;5.90;99.90;;;;;;4982224;28;20434;-76
2022/12/30 01:57:31;;;;;;;23.15;5.20;;;6.10;99.90;;;;;;4983683;28;20419;-76
2022/12/30 01:59:58;;;;;;;24.52;5.25;;;6.00;99.90;;;;;;4983716;28;20426;-78
2022/12/30 02:02:24;;;;;;;21.13;3.90;;;5.80;99.90;;;;;;4985071;28;20485;-77
2022/12/30 02:04:50;;;;;;;28.48;6.30;;;6.00;99.90;;;;;;4989588;28;20424;-76
2022/12/30 02:07:25;;;;;;;19.13;4.60;;;5.70;99.90;;;;;;4987625;28;20813;-76
2022/12/30 02:09:52;;;;;;;27.63;5.15;;;5.80;99.90;;;;;;4984531;28;20414;-79
2022/12/30 02:12:18;;;;;;;23.95;5.60;;;5.70;99.90;;;;;;4980365;28;20430;-75
2022/12/30 02:14:46;;;;;;;20.48;4.22;;;5.60;99.90;;;;;;4980656;28;20856;-77
2022/12/30 02:17:20;;;;;;;24.23;4.93;;;5.90;99.90;;;;;;4983179;28;20861;-76
2022/12/30 02:20:04;;;;;;;18.85;4.47;;;5.70;99.90;;;;;;4982762;28;20442;-78
2022/12/30 02:22:58;;;;;;;24.13;5.67;;;5.70;99.90;;;;;;4966781;28;20495;-76
2022/12/30 02:25:53;;;;;;;22.25;4.65;;;5.80;99.90;;;;;;4979986;28;20442;-78
2022/12/30 02:28:55;;;;;;;21.08;3.80;;;5.60;99.90;;;;;;4982104;28;20446;-76
2022/12/30 02:31:30;;;;;;;23.73;4.10;;;5.80;99.90;;;;;;4977519;28;20890;-76
2022/12/30 02:34:28;;;;;;;29.48;5.45;;;5.90;99.90;;;;;;4994776;28;21017;-80
2022/12/30 02:36:55;;;;;;;27.55;5.30;;;5.90;99.90;;;;;;4985351;28;20440;-76
2022/12/30 02:39:45;;;;;;;22.97;4.93;;;6.20;99.90;;;;;;5003187;28;20479;-76
2022/12/30 02:45:39;;;;;;;27.88;4.93;;;6.00;99.90;;;;;;4982178;28;20982;-76
2022/12/30 02:48:17;;;;;;;28.08;6.88;;;5.90;99.90;;;;;;4983414;28;20501;-78
2022/12/30 02:53:33;;;;;;;24.40;5.63;;;6.20;99.90;;;;;;4968871;28;20526;-77
2022/12/30 02:55:59;;;;;;;24.88;5.80;;;6.20;99.90;;;;;;4977121;28;20423;-76
2022/12/30 02:58:29;;;;;;;21.80;4.40;;;5.80;99.90;;;;;;4983633;28;20417;-77
2022/12/30 03:04:20;;;;;;;28.65;6.15;;;6.00;99.90;;;;;;4964522;28;20910;-79
2022/12/30 03:06:58;;;;;;;20.02;4.78;;;5.90;99.90;;;;;;4981078;28;20422;-78
2022/12/30 03:09:42;;;;;;;20.52;4.13;;;5.70;99.90;;;;;;4966229;28;20456;-79
2022/12/30 03:12:32;;;;;;;24.88;5.45;;;5.80;99.90;;;;;;4981453;28;20422;-75
2022/12/30 03:15:03;;;;;;;23.30;5.40;;;5.90;99.90;;;;;;4980103;28;20516;-78
2022/12/30 03:17:37;;;;;;;22.95;4.60;;;5.70;99.90;;;;;;4976258;28;20435;-77
2022/12/30 03:20:07;;;;;;;25.83;5.30;;;5.80;99.90;;;;;;4977022;28;20434;-79
2022/12/30 03:28:08;;;;;;;20.42;5.13;;;5.60;99.90;;;;;;4981949;28;20430;-77
2022/12/30 03:30:39;;;;;;;19.47;4.67;;;5.40;99.90;;;;;;4983041;28;20434;-77
2022/12/30 03:33:05;;;;;;;26.65;6.45;;;5.30;99.90;;;;;;4980470;28;20458;-78
2022/12/30 03:35:38;;;;;;;22.13;4.80;;;5.10;99.90;;;;;;4982642;28;20430;-78
2022/12/30 03:38:08;;;;;;;20.60;4.60;;;5.50;99.90;;;;;;4982334;28;20434;-78
2022/12/30 03:40:38;;;;;;;22.48;4.50;;;5.30;99.90;;;;;;4980258;28;20850;-78
2022/12/30 03:43:05;;;;;;;22.43;5.13;;;5.40;99.90;;;;;;4982282;28;20427;-77
2022/12/30 03:45:31;;;;;;;24.95;4.28;;;5.00;99.90;;;;;;4982360;28;20433;-77
2022/12/30 03:47:57;;;;;;;22.42;4.18;;;4.90;99.90;;;;;;4984965;28;20438;-78
2022/12/30 03:50:22;;;;;;;24.25;4.60;;;4.80;99.90;;;;;;4987582;28;20505;-78
2022/12/30 03:52:48;;;;;;;21.80;4.75;;;5.30;99.90;;;;;;4989290;28;20441;-78
2022/12/30 03:55:14;;;;;;;27.38;6.10;;;5.20;99.90;;;;;;4986031;28;20426;-78
2022/12/30 03:57:40;;;;;;;18.52;4.10;;;5.00;99.90;;;;;;4984368;28;20944;-77
2022/12/30 04:00:08;;;;;;;25.37;5.07;;;5.20;99.90;;;;;;4985682;28;20414;-78
2022/12/30 04:02:34;;;;;;;21.40;5.22;;;5.20;99.90;;;;;;4984838;28;20434;-78
2022/12/30 04:05:00;;;;;;;22.70;6.47;;;4.70;99.90;;;;;;4986183;28;20557;-79
2022/12/30 04:07:26;;;;;;;22.02;4.53;;;4.80;99.90;;;;;;4985673;28;20887;-78
2022/12/30 04:09:51;;;;;;;19.52;4.47;;;4.90;99.90;;;;;;4988040;28;20465;-77
2022/12/30 04:12:17;;;;;;;25.95;6.22;;;4.80;99.90;;;;;;4985062;28;20778;-78
2022/12/30 04:14:43;;;;;;;18.25;4.88;;;4.70;99.90;;;;;;4993655;28;20434;-78
2022/12/30 04:17:08;;;;;;;22.48;5.43;;;4.90;99.90;;;;;;4986268;28;20500;-78
2022/12/30 04:19:34;;;;;;;21.67;4.90;;;4.70;99.90;;;;;;4982187;28;20454;-79
2022/12/30 04:21:59;;;;;;;20.33;4.53;;;4.60;99.90;;;;;;4985589;28;20429;-77
2022/12/30 04:24:25;;;;;;;20.67;4.53;;;5.00;99.90;;;;;;4981399;28;20427;-79
2022/12/30 04:26:51;;;;;;;23.13;4.97;;;5.10;99.90;;;;;;4986546;28;20470;-76
2022/12/30 04:29:17;;;;;;;22.48;4.57;;;5.00;99.90;;;;;;4969581;28;20456;-76
2022/12/30 04:31:42;;;;;;;21.08;4.78;;;5.10;99.90;;;;;;4982416;28;20454;-77
2022/12/30 04:34:09;;;;;;;23.05;4.85;;;4.70;99.90;;;;;;4970573;28;20441;-77
2022/12/30 04:36:35;;;;;;;20.48;4.40;;;4.60;99.90;;;;;;4985784;28;20948;-78
2022/12/30 04:39:00;;;;;;;20.33;5.70;;;5.00;99.90;;;;;;4984836;28;20426;-78
2022/12/30 04:41:26;;;;;;;18.48;4.00;;;5.10;99.90;;;;;;4985410;28;20566;-77
2022/12/30 04:43:51;;;;;;;19.30;4.20;;;4.90;99.90;;;;;;4985288;28;20446;-78
2022/12/30 04:46:17;;;;;;;19.33;4.80;;;5.00;99.90;;;;;;4985562;28;20445;-79
2022/12/30 04:48:43;;;;;;;16.55;3.50;;;5.00;99.90;;;;;;4985061;28;20430;-77
2022/12/30 04:51:08;;;;;;;16.38;4.40;;;5.00;99.90;;;;;;4982436;28;20497;-77
2022/12/30 04:53:34;;;;;;;17.25;4.20;;;4.70;99.90;;;;;;4984891;28;20434;-77
2022/12/30 04:56:00;;;;;;;19.52;4.95;;;5.30;99.90;;;;;;4983902;28;20793;-77
2022/12/30 04:58:25;;;;;;;21.15;4.70;;;5.30;99.90;;;;;;4983474;28;20957;-76
2022/12/30 05:00:52;;;;;;;20.35;3.85;;;5.40;99.90;;;;;;4986038;28;20948;-77
2022/12/30 05:03:18;;;;;;;18.40;4.22;;;5.10;99.90;;;;;;4981443;28;20441;-77
2022/12/30 05:05:45;;;;;;;16.42;3.80;;;5.40;99.90;;;;;;4991104;28;20549;-77
2022/12/30 05:08:10;;;;;;;13.88;3.13;;;5.10;99.90;;;;;;4985460;28;20418;-77
2022/12/30 05:10:38;;;;;;;19.00;5.50;;;5.10;99.90;;;;;;4984595;28;20809;-78
2022/12/30 05:13:04;;;;;;;18.27;4.28;;;5.10;99.90;;;;;;4977842;28;20425;-77
2022/12/30 05:15:30;;;;;;;14.40;3.57;;;5.20;99.90;;;;;;4986982;28;20430;-77
2022/12/30 05:17:56;;;;;;;16.98;3.75;;;5.60;99.90;;;;;;4984699;28;20412;-77
2022/12/30 05:20:22;;;;;;;17.40;4.05;;;5.60;99.90;;;;;;4983394;28;20444;-79
2022/12/30 05:22:47;;;;;;;19.67;4.75;;;5.60;99.90;;;;;;4983128;28;20789;-80
2022/12/30 05:27:57;;;;;;;15.43;4.72;;;5.30;99.90;;;;;;4993131;28;20420;-78
2022/12/30 05:30:23;;;;;;;14.53;4.20;;;5.40;99.90;;;;;;5003234;28;20902;-77
2022/12/30 05:32:49;;;;;;;17.02;5.80;;;5.70;99.90;;;;;;4982199;28;20431;-78
2022/12/30 05:35:14;;;;;;;20.95;5.50;;;5.30;99.90;;;;;;4980555;28;20443;-77
2022/12/30 05:37:41;;;;;;;18.00;4.72;;;5.60;99.90;;;;;;4978997;28;20437;-76
2022/12/30 05:40:08;;;;;;;15.07;3.67;;;5.60;99.90;;;;;;4983460;28;20955;-76
2022/12/30 05:42:34;;;;;;;16.48;4.28;;;5.50;99.90;;;;;;4982885;28;20430;-78
2022/12/30 05:45:00;;;;;;;19.17;4.70;;;5.60;99.90;;;;;;4984847;28;20453;-77
2022/12/30 05:47:25;;;;;;;19.15;4.60;;;5.60;99.90;;;;;;4982774;28;20462;-78
2022/12/30 05:49:51;;;;;;;18.20;4.15;;;5.40;99.90;;;;;;4984533;28;20431;-77
2022/12/30 05:52:17;;;;;;;17.83;4.90;;;5.30;99.90;;;;;;4981839;28;20462;-75
2022/12/30 05:54:42;;;;;;;17.37;4.50;;;5.30;99.90;;;;;;4981769;28;20900;-78
2022/12/30 05:57:09;;;;;;;15.53;3.70;;;5.00;99.90;;;;;;4964796;28;20435;-78
2022/12/30 05:59:35;;;;;;;16.05;4.07;;;4.90;99.90;;;;;;4973808;28;20445;-79
2022/12/30 06:02:01;;;;;;;16.33;4.57;;;5.10;99.90;;;;;;4982351;28;20766;-76
2022/12/30 06:04:27;;;;;;;16.58;4.75;;;4.90;99.90;;;;;;4982231;28;20477;-78
2022/12/30 06:06:53;;;;;;;17.53;4.70;;;5.10;99.90;;;;;;4982942;28;20808;-77
2022/12/30 06:09:19;;;;;;;17.13;5.40;;;5.00;99.90;;;;;;4983555;28;20540;-77
2022/12/30 06:11:44;;;;;;;14.85;4.43;;;4.60;99.90;;;;;;4983815;28;20477;-78
2022/12/30 06:14:12;;;;;;;15.35;5.65;;;5.10;99.90;;;;;;4969592;28;20526;-78
2022/12/30 06:16:37;;;;;;;23.08;7.22;;;5.10;99.90;;;;;;4983759;28;20430;-76
2022/12/30 06:19:03;;;;;;;20.08;5.22;;;4.50;99.90;;;;;;4980477;28;20528;-77
2022/12/30 06:21:29;;;;;;;16.05;4.28;;;4.60;99.90;;;;;;4981353;28;20830;-76
2022/12/30 06:23:55;;;;;;;20.73;4.82;;;5.00;99.90;;;;;;4983574;28;20517;-75
2022/12/30 06:26:20;;;;;;;19.23;4.80;;;4.80;99.90;;;;;;4984614;28;20449;-78
2022/12/30 06:28:46;;;;;;;16.30;4.43;;;4.70;99.90;;;;;;4983267;28;20430;-78
2022/12/30 06:31:11;;;;;;;13.93;4.65;;;4.50;99.90;;;;;;4984473;28;20434;-78
2022/12/30 06:33:37;;;;;;;15.00;4.97;;;4.60;99.90;;;;;;4984490;28;20943;-76
2022/12/30 06:36:03;;;;;;;13.70;4.45;;;4.80;99.90;;;;;;4983135;28;21117;-78
2022/12/30 06:38:29;;;;;;;20.02;6.10;;;4.90;99.90;;;;;;4984678;28;20485;-76
2022/12/30 06:40:54;;;;;;;17.20;4.77;;;4.30;99.90;;;;;;4987830;28;20420;-78
2022/12/30 06:43:20;;;;;;;13.73;4.47;;;4.50;99.90;;;;;;4990944;28;20599;-78
2022/12/30 06:45:46;;;;;;;11.90;4.33;;;4.80;99.90;;;;;;4985004;28;20473;-78
2022/12/30 06:48:12;;;;;;;14.97;5.90;;;4.90;99.90;;;;;;4973425;28;20424;-77
2022/12/30 06:50:37;;;;;;;21.33;5.70;;;4.60;99.90;;;;;;4983490;28;20533;-77
2022/12/30 06:53:04;;;;;;;14.13;4.30;;;4.50;99.90;;;;;;4974296;28;20447;-79
2022/12/30 06:55:30;;;;;;;18.87;4.80;;;4.90;99.90;;;;;;4976635;28;20497;-77
2022/12/30 06:57:55;;;;;;;21.43;4.37;;;4.40;99.90;;;;;;4981331;28;20866;-76
2022/12/30 07:00:21;;;;;;;18.83;4.60;;;4.70;99.90;;;;;;4983550;28;20461;-78
2022/12/30 07:02:46;;;;;;;19.13;5.50;;;4.80;99.90;;;;;;4982731;28;20450;-76
2022/12/30 07:05:12;;;;;;;13.87;4.03;;;4.40;99.90;;;;;;4982553;28;20426;-77
2022/12/30 07:07:38;;;;;;;18.27;4.23;;;4.50;99.90;;;;;;4983139;28;20418;-77
2022/12/30 07:10:04;;;;;;;17.37;4.33;;;4.60;99.90;;;;;;4980172;28;20797;-78
2022/12/30 07:12:29;;;;;;;13.77;3.17;;;4.90;99.90;;;;;;4981192;28;20430;-77
2022/12/30 07:14:55;;;;;;;14.32;4.38;;;4.50;99.90;;;;;;4982379;28;20525;-77
2022/12/30 07:17:21;;;;;;;17.67;4.07;;;4.80;99.90;;;;;;4987950;28;20504;-79
2022/12/30 07:19:46;;;;;;;15.98;4.28;;;4.80;99.90;;;;;;4990752;28;20430;-77
2022/12/30 07:22:13;;;;;;;15.68;4.03;;;4.80;99.90;;;;;;4985767;28;20430;-77
2022/12/30 07:24:38;;;;;;;17.57;4.63;;;4.50;99.90;;;;;;4987109;28;20464;-77
2022/12/30 07:27:04;;;;;;;14.60;4.20;;;4.50;99.90;;;;;;4986535;28;20473;-78
2022/12/30 07:29:30;;;;;;;12.67;3.30;;;4.80;99.90;;;;;;4987369;28;20825;-78
2022/12/30 07:31:57;;;;;;;21.90;4.30;;;4.70;99.90;;;;;;4984421;28;20446;-76
2022/12/30 07:34:23;;;;;;;16.42;3.72;;;4.50;99.90;;;;;;4993768;28;20846;-78
2022/12/30 07:36:49;;;;;;;16.53;3.40;;;4.70;99.90;;;;;;4972710;28;20463;-77
2022/12/30 07:39:14;;;;;;;18.48;3.88;;;4.80;99.90;;;;;;4985845;28;20434;-76
2022/12/30 07:41:40;;;;;;;15.57;3.90;;;4.30;99.90;;;;;;4976670;28;20517;-76
2022/12/30 07:44:06;;;;;;;18.85;4.20;;;4.50;99.90;;;;;;4983840;28;20496;-78
2022/12/30 07:46:31;;;;;;;18.27;3.30;;;4.60;99.90;;;;;;4985470;28;20425;-76
2022/12/30 07:48:57;;;;;;;15.85;4.20;;;4.20;99.90;;;;;;4982977;28;20521;-78
2022/12/30 07:51:23;;;;;;;17.52;5.35;;;4.70;99.90;;;;;;4986308;28;20418;-76
2022/12/30 07:53:48;;;;;;;17.63;4.55;;;4.60;99.90;;;;;;4985436;28;20508;-77
2022/12/30 07:56:14;;;;;;;14.90;3.95;;;4.50;99.90;;;;;;4986012;28;20493;-79
2022/12/30 07:58:40;;;;;;;17.58;3.80;;;4.30;99.90;;;;;;4983927;28;20450;-75
2022/12/30 08:01:09;;;;;;;15.38;3.90;;;4.30;99.90;;;;;;4985235;28;20436;-76
2022/12/30 08:03:35;;;;;;;13.85;3.75;;;4.30;99.90;;;;;;4986256;28;20552;-78
2022/12/30 08:06:10;;;;;;;16.00;4.10;;;4.60;99.90;;;;;;4986245;28;20406;-75
2022/12/30 08:08:36;;;;;;;17.42;4.15;;;4.30;99.90;;;;;;4986085;28;20426;-79
2022/12/30 08:11:03;;;;;;;16.95;4.50;;;4.60;99.90;;;;;;4984057;28;20426;-77
2022/12/30 08:13:34;;;;;;;13.32;3.60;;;4.50;99.90;;;;;;4985043;28;20434;-76
2022/12/30 08:16:06;;;;;;;17.05;4.03;;;4.80;99.90;;;;;;4984955;28;20473;-76
2022/12/30 08:18:32;;;;;;;17.08;4.10;;;4.40;99.90;;;;;;4986132;28;20422;-77
2022/12/30 08:21:02;;;;;;;21.40;4.60;;;4.90;99.90;;;;;;4997212;28;20830;-78
2022/12/30 08:23:31;;;;;;;16.95;5.75;;;4.90;99.90;;;;;;4985525;28;20422;-76
2022/12/30 08:26:02;;;;;;;12.32;3.25;;;4.90;99.90;;;;;;4984242;28;20437;-80
2022/12/30 08:28:28;;;;;;;16.90;3.80;;;4.50;99.90;;;;;;4984733;28;20460;-75
2022/12/30 08:30:54;;;;;;;17.50;4.05;;;4.50;99.90;;;;;;4985479;28;20855;-76
2022/12/30 08:33:19;;;;;;;15.68;3.63;;;4.50;99.90;;;;;;4983977;28;20529;-77
2022/12/30 08:35:45;;;;;;;17.58;3.40;;;4.60;99.90;;;;;;4986245;28;20468;-80
2022/12/30 08:38:11;;;;;;;16.77;4.45;;;4.90;99.90;;;;;;4985793;28;20422;-77
2022/12/30 08:40:37;;;;;;;17.00;4.70;;;5.00;99.90;;;;;;4985295;28;21339;-76
2022/12/30 08:43:03;;;;;;;17.50;3.20;;;5.10;99.90;;;;;;4983825;28;20430;-78
2022/12/30 08:45:29;;;;;;;15.88;3.42;;;4.90;99.90;;;;;;4975443;28;20455;-76
2022/12/30 08:47:54;;;;;;;17.17;4.30;;;5.10;99.90;;;;;;4981333;28;20507;-76
2022/12/30 08:50:20;;;;;;;17.27;4.80;;;5.10;99.90;;;;;;4985512;28;20924;-79
2022/12/30 08:52:46;;;;;;;16.30;4.10;;;4.70;99.90;;;;;;4985754;28;20923;-77
2022/12/30 08:55:11;;;;;;;15.85;3.75;;;4.80;99.90;;;;;;4994717;28;20424;-75
2022/12/30 08:57:38;;;;;;;18.10;4.18;;;4.70;99.90;;;;;;4988509;28;20414;-75
2022/12/30 09:00:05;;;;;;;16.35;4.57;;;4.80;99.90;;;;;;4985614;28;20802;-77
2022/12/30 09:02:32;;;;;;;15.77;4.25;;;4.80;99.90;;;;;;4983914;28;20434;-77
2022/12/30 09:04:58;;;;;;;15.25;3.85;;;5.00;99.90;;;;;;4993116;28;20426;-76
2022/12/30 09:07:24;;;;;;;19.30;4.32;;;4.80;99.90;;;;;;4985454;28;20473;-78
2022/12/30 09:09:49;;;;;;;10.95;3.25;;;5.20;99.90;;;;;;4985858;28;20410;-76
2022/12/30 09:12:15;;;;;;;13.75;3.47;;;4.90;99.90;;;;;;4983770;28;20836;-76
2022/12/30 09:14:41;;;;;;;14.48;3.45;;;5.20;99.90;;;;;;4984861;28;20438;-78
2022/12/30 09:17:07;;;;;;;13.38;3.72;;;5.00;99.90;;;;;;4983307;28;20426;-76
2022/12/30 09:19:32;;;;;;;19.30;4.83;;;5.20;99.90;;;;;;4996242;28;20437;-77
2022/12/30 09:21:58;;;;;;;15.43;3.93;;;5.00;99.90;;;;;;4983109;28;20557;-82
2022/12/30 09:24:24;;;;;;;19.10;4.80;;;5.40;99.90;;;;;;4984329;28;20481;-80
2022/12/30 09:26:49;;;;;;;12.43;3.70;;;5.00;99.90;;;;;;4984547;28;20908;-77
2022/12/30 09:29:17;;;;;;;17.13;5.63;;;5.10;99.90;;;;;;4984366;28;20858;-79
2022/12/30 09:31:42;;;;;;;13.77;4.20;;;5.20;99.90;;;;;;4983344;28;20480;-76
2022/12/30 09:34:08;;;;;;;16.55;4.93;;;5.50;99.90;;;;;;4983425;28;20790;-78
2022/12/30 09:36:34;;;;;;;19.37;3.70;;;5.20;99.90;;;;;;4984687;28;20434;-79
2022/12/30 09:38:59;;;;;;;14.15;3.90;;;5.60;99.90;;;;;;4999674;28;20823;-78
2022/12/30 09:44:36;;;;;;;14.23;4.10;;;5.50;99.90;;;;;;4980358;28;20434;-77
2022/12/30 09:47:02;;;;;;;13.40;4.00;;;5.50;99.90;;;;;;4983291;28;20493;-77
2022/12/30 09:49:42;;;;;;;11.77;3.27;;;5.80;99.90;;;;;;4984222;28;20446;-76
2022/12/30 09:52:26;;;;;;;12.23;3.33;;;5.50;99.90;;;;;;4983928;28;20423;-75
2022/12/30 09:54:59;;;;;;;13.35;3.38;;;5.70;99.90;;;;;;4984887;28;20979;-75
2022/12/30 09:57:30;;;;;;;13.13;4.60;;;5.80;99.90;;;;;;4983915;28;20461;-79
2022/12/30 10:00:19;;;;;;;18.48;4.88;;;5.70;99.90;;;;;;4984209;28;20434;-77
2022/12/30 10:03:26;;;;;;;12.70;3.90;;;5.90;99.90;;;;;;4992978;28;20519;-76
2022/12/30 10:06:06;;;;;;;17.73;4.50;;;6.00;99.90;;;;;;4985231;28;21154;-77
2022/12/30 10:09:06;;;;;;;10.35;3.45;;;6.00;99.90;;;;;;4996418;28;20397;-77
2022/12/30 10:11:53;;;;;;;21.98;5.28;;;5.90;99.90;;;;;;4987627;28;20517;-78
2022/12/30 10:14:43;;;;;;;15.90;5.55;;;5.90;99.90;;;;;;4987852;28;20529;-77
2022/12/30 10:17:23;;;;;;;16.08;5.47;;;6.00;99.90;;;;;;4965337;28;20439;-77
2022/12/30 10:20:23;;;;;;;15.80;4.85;;;6.20;99.90;;;;;;4983683;28;20423;-77
2022/12/30 10:23:03;;;;;;;17.47;7.60;;;6.30;99.90;;;;;;4983534;28;20433;-77
2022/12/30 10:25:43;;;;;;;14.00;4.90;;;6.20;99.90;;;;;;4982143;28;21236;-78
2022/12/30 10:28:12;;;;;;;12.52;3.50;;;6.20;99.90;;;;;;4981167;28;20491;-78
2022/12/30 10:30:44;;;;;;;17.25;4.28;;;6.20;99.90;;;;;;4983400;28;20445;-77
2022/12/30 10:33:20;;;;;;;17.33;5.13;;;6.40;99.90;;;;;;4982956;28;20786;-77
2022/12/30 10:35:49;;;;;;;19.05;3.95;;;6.50;99.90;;;;;;4998806;28;20400;-77
2022/12/30 10:38:18;;;;;;;14.45;3.80;;;6.40;99.90;;;;;;4983218;28;20438;-78
2022/12/30 10:41:24;;;;;;;12.40;3.30;;;6.40;99.90;;;;;;4984140;28;20438;-78
2022/12/30 10:47:04;;;;;;;9.50;2.97;;;6.50;99.90;;;;;;4941207;26;20442;-71
2022/12/30 10:49:54;;;;;;;11.25;3.67;;;6.50;99.90;;;;;;4959552;28;20435;-72
2022/12/30 10:52:21;;;;;;;12.88;3.15;;;6.50;99.90;;;;;;4961467;28;20953;-71
2022/12/30 10:54:48;;;;;;;13.75;4.45;;;6.40;99.90;;;;;;4942078;28;20436;-71
2022/12/30 10:57:22;;;;;;;10.75;2.83;;;6.50;99.90;;;;;;4961008;28;21001;-72
2022/12/30 10:59:48;;;;;;;12.07;2.90;;;6.40;99.90;;;;;;4955579;28;20433;-70
2022/12/30 11:02:24;;;;;;;11.43;2.80;;;6.50;99.90;;;;;;4961052;28;20459;-71
2022/12/30 11:04:50;;;;;;;13.73;3.47;;;6.50;99.90;;;;;;4957926;28;20439;-71
2022/12/30 11:07:17;;;;;;;10.50;2.50;;;6.50;99.90;;;;;;4959626;28;21102;-71
2022/12/30 11:09:44;;;;;;;8.57;2.58;;;6.60;99.90;;;;;;4958779;28;20431;-70
2022/12/30 11:15:11;;;;;;;7.38;1.88;;;6.60;99.90;;;;;;4950619;28;20611;-71
2022/12/30 11:17:41;;;;;;;7.35;2.25;;;6.60;99.90;;;;;;4954748;28;20475;-72
2022/12/30 11:20:27;;;;;;;5.88;2.13;;;6.80;99.90;;;;;;4955300;28;20620;-71
2022/12/30 11:22:56;;;;;;;8.27;1.90;;;6.70;99.90;;;;;;4938451;28;20433;-72
2022/12/30 11:25:33;;;;;;;8.70;2.40;;;6.80;99.90;;;;;;4962486;28;20434;-71
2022/12/30 11:28:02;;;;;;;10.73;2.55;;;6.90;99.90;;;;;;4958054;28;20771;-71
2022/12/30 11:30:35;;;;;;;10.65;2.92;;;6.90;99.90;;;;;;4959928;28;20411;-70
2022/12/30 11:33:04;;;;;;;6.05;2.33;;;6.90;99.90;;;;;;4960315;28;20916;-71
2022/12/30 11:35:41;;;;;;;9.70;2.00;;;7.00;99.90;;;;;;4961114;28;20432;-71
2022/12/30 11:38:31;;;;;;;7.95;1.88;;;7.00;99.90;;;;;;4962183;28;20823;-72
2022/12/30 11:41:12;;;;;;;11.10;2.58;;;7.00;99.90;;;;;;4955343;28;20424;-71
2022/12/30 11:43:38;;;;;;;7.50;1.67;;;7.00;99.90;;;;;;4950507;28;20430;-71
2022/12/30 11:46:07;;;;;;;7.27;2.07;;;7.10;99.90;;;;;;4943377;28;20440;-70
2022/12/30 11:48:38;;;;;;;4.97;1.90;;;7.10;99.90;;;;;;4960219;28;20834;-71
2022/12/30 11:51:18;;;;;;;7.85;2.50;;;7.00;99.90;;;;;;4961713;28;20428;-73
2022/12/30 11:53:44;;;;;;;6.00;1.73;;;7.00;99.90;;;;;;4959647;28;20438;-73
2022/12/30 11:56:10;;;;;;;8.48;2.40;;;7.10;99.90;;;;;;4967198;28;20439;-71
2022/12/30 11:58:38;;;;;;;6.70;1.73;;;7.00;99.90;;;;;;4958079;28;20440;-72
2022/12/30 12:01:10;;;;;;;6.43;2.10;;;7.10;99.90;;;;;;4961171;28;21488;-70
2022/12/30 12:03:52;;;;;;;5.90;2.60;;;7.20;99.90;;;;;;4961114;28;20495;-72
2022/12/30 12:06:18;;;;;;;8.10;1.70;;;7.10;99.90;;;;;;4962236;28;20424;-70
2022/12/30 12:08:54;;;;;;;8.43;1.92;;;7.20;99.90;;;;;;4962987;28;21072;-71
2022/12/30 12:11:25;;;;;;;9.73;2.83;;;7.20;99.90;;;;;;4961423;28;20752;-73
2022/12/30 12:14:39;;;;;;;7.40;1.70;;;7.30;99.90;;;;;;4961593;28;20960;-71
2022/12/30 12:17:43;;;;;;;9.38;2.45;;;7.30;99.90;;;;;;4938142;28;20438;-72
2022/12/30 12:20:31;;;;;;;12.20;4.97;;;7.40;99.90;;;;;;4931035;28;20452;-70
2022/12/30 12:22:57;;;;;;;5.90;1.55;;;7.40;99.90;;;;;;4960055;28;20511;-72
2022/12/30 12:25:28;;;;;;;6.82;1.98;;;7.50;99.90;;;;;;4956919;28;20436;-72
2022/12/30 12:27:54;;;;;;;4.93;1.23;;;7.50;99.90;;;;;;4962521;28;20439;-71
2022/12/30 12:30:20;;;;;;;7.47;1.73;;;7.60;99.90;;;;;;4961610;28;20903;-72
2022/12/30 12:33:04;;;;;;;7.18;1.73;;;7.60;99.90;;;;;;4962164;28;20451;-72
2022/12/30 12:35:47;;;;;;;5.80;1.90;;;7.60;99.90;;;;;;4955962;28;20502;-72
2022/12/30 12:38:46;;;;;;;6.85;1.77;;;7.70;99.90;;;;;;4963167;28;20518;-71
2022/12/30 12:41:21;;;;;;;7.68;2.65;;;7.70;99.90;;;;;;4962191;28;20487;-71
2022/12/30 12:44:15;;;;;;;10.37;2.67;;;7.70;99.90;;;;;;4962479;28;20467;-72
2022/12/30 12:46:59;;;;;;;6.45;1.95;;;7.70;99.90;;;;;;4950335;28;20437;-73
2022/12/30 12:49:35;;;;;;;6.18;2.10;;;7.80;99.90;;;;;;4959073;28;20430;-72
2022/12/30 12:52:39;;;;;;;4.68;1.50;;;7.80;99.90;;;;;;4964057;28;20432;-73
2022/12/30 12:55:24;;;;;;;9.48;1.50;;;7.90;99.90;;;;;;4952580;28;20440;-71
2022/12/30 12:58:02;;;;;;;9.47;2.27;;;7.90;99.90;;;;;;4963088;28;20611;-72
2022/12/30 13:01:07;;;;;;;6.45;1.80;;;7.90;99.90;;;;;;4961393;28;22026;-72
2022/12/30 13:03:39;;;;;;;6.53;1.58;;;8.00;99.90;;;;;;4959167;28;20428;-71
2022/12/30 13:06:39;;;;;;;5.80;1.90;;;8.00;99.90;;;;;;4964238;28;20432;-70
2022/12/30 13:09:20;;;;;;;8.63;1.83;;;8.00;99.90;;;;;;4962694;28;20443;-72
2022/12/30 13:11:54;;;;;;;6.45;1.85;;;8.10;99.90;;;;;;4959432;28;20443;-72
2022/12/30 13:14:28;;;;;;;8.75;2.08;;;8.10;99.90;;;;;;4960058;28;20447;-72
2022/12/30 13:16:59;;;;;;;10.00;2.30;;;8.10;99.90;;;;;;4945290;28;20954;-72
2022/12/30 13:19:30;;;;;;;8.85;2.00;;;8.10;99.90;;;;;;4961006;28;20487;-71
2022/12/30 13:21:58;;;;;;;5.20;1.65;;;8.20;99.90;;;;;;4962081;28;20862;-72
2022/12/30 13:24:38;;;;;;;5.53;1.38;;;8.30;99.90;;;;;;4957766;28;20437;-72
2022/12/30 13:27:07;;;;;;;6.25;1.50;;;8.30;99.90;;;;;;4961753;28;20451;-72
2022/12/30 13:29:35;;;;;;;5.43;1.52;;;8.30;99.90;;;;;;4956967;28;20437;-72
2022/12/30 13:32:10;;;;;;;8.52;2.45;;;8.30;99.90;;;;;;4961501;28;20450;-71
2022/12/30 13:34:47;;;;;;;6.93;1.58;;;8.40;99.90;;;;;;4959462;28;20468;-71
2022/12/30 13:37:37;;;;;;;7.90;2.40;;;8.40;99.90;;;;;;4956156;28;20435;-72
2022/12/30 13:40:19;;;;;;;8.63;2.47;;;8.50;99.90;;;;;;4956112;28;20798;-72
2022/12/30 13:42:54;;;;;;;7.28;2.72;;;8.50;99.90;;;;;;4954048;28;20436;-72
2022/12/30 13:45:35;;;;;;;5.93;1.58;;;8.50;99.90;;;;;;4959524;28;20428;-72
2022/12/30 13:48:03;;;;;;;5.15;1.30;;;8.50;99.90;;;;;;4962325;28;20428;-72
2022/12/30 13:50:31;;;;;;;9.50;2.20;;;8.60;99.90;;;;;;4945209;28;20624;-71
2022/12/30 13:53:00;;;;;;;7.63;1.52;;;8.60;99.90;;;;;;4963080;28;20443;-72
2022/12/30 13:55:30;;;;;;;4.33;1.37;;;8.60;99.90;;;;;;4974746;28;20439;-72
2022/12/30 13:58:05;;;;;;;6.43;2.30;;;8.70;99.90;;;;;;4963258;28;21415;-72
2022/12/30 14:00:38;;;;;;;8.15;2.55;;;8.70;99.90;;;;;;4960396;28;20416;-72
2022/12/30 14:03:24;;;;;;;7.80;2.28;;;8.80;99.90;;;;;;4952793;28;20614;-72
2022/12/30 14:05:54;;;;;;;5.63;1.30;;;8.80;99.90;;;;;;4945538;28;20422;-71
2022/12/30 14:08:24;;;;;;;5.32;1.65;;;8.80;99.90;;;;;;4948479;28;20762;-71